Time;durP1;ratioP1;P1;durP2;ratioP2;P2;SDS_P1;SDS_P2;PMS_P1;PMS_P2;Temp;Humidity;BMP_temperature;BMP_pressure;BME280_temperature;BME280_humidity;BME280_pressure;Samples;Min_cycle;Max_cycle;Signal;HPM_P1;HPM_P2
2021/04/15 00:01:24;;;;;;;1.30;1.20;;;20.20;40.40;;;;;;5010965;28;20422;-74
2021/04/15 00:03:51;;;;;;;1.70;1.20;;;20.20;40.40;;;;;;5009677;28;20422;-76
2021/04/15 00:06:18;;;;;;;1.50;1.40;;;20.10;40.20;;;;;;5012027;28;20428;-73
2021/04/15 00:08:44;;;;;;;0.90;0.90;;;20.10;40.20;;;;;;5009821;28;20412;-75
2021/04/15 00:11:10;;;;;;;1.30;1.20;;;20.10;40.10;;;;;;5008053;28;20441;-74
2021/04/15 00:13:38;;;;;;;1.60;1.10;;;20.10;40.20;;;;;;5006230;28;20413;-73
2021/04/15 00:16:05;;;;;;;1.60;1.00;;;20.10;39.90;;;;;;5008190;28;20533;-74
2021/04/15 00:18:32;;;;;;;1.50;1.10;;;20.10;40.00;;;;;;5003936;28;20397;-74
2021/04/15 00:20:58;;;;;;;1.50;1.13;;;20.10;40.20;;;;;;5004564;28;20429;-73
2021/04/15 00:23:24;;;;;;;1.30;1.30;;;20.10;40.00;;;;;;5016227;28;20480;-73
2021/04/15 00:25:50;;;;;;;1.83;1.03;;;20.10;40.00;;;;;;5009999;28;20456;-74
2021/04/15 00:28:16;;;;;;;1.30;1.20;;;20.10;40.00;;;;;;5011029;28;20445;-73
2021/04/15 00:30:43;;;;;;;1.48;1.38;;;20.10;40.30;;;;;;5009065;28;20421;-73
2021/04/15 00:33:10;;;;;;;2.00;1.20;;;20.10;40.30;;;;;;5006075;28;20434;-74
2021/04/15 00:35:38;;;;;;;1.80;1.20;;;20.20;40.30;;;;;;5008892;28;20413;-74
2021/04/15 00:38:04;;;;;;;0.90;0.90;;;20.20;40.20;;;;;;5007661;28;20409;-74
2021/04/15 00:40:31;;;;;;;1.83;1.30;;;20.20;40.10;;;;;;4989272;28;20921;-74
2021/04/15 00:42:57;;;;;;;3.63;1.10;;;20.30;40.20;;;;;;5002897;28;20411;-74
2021/04/15 00:45:24;;;;;;;1.20;1.00;;;20.30;40.10;;;;;;5008993;28;20445;-74
2021/04/15 00:47:53;;;;;;;1.27;0.98;;;20.30;40.20;;;;;;5006571;28;20418;-76
2021/04/15 00:50:21;;;;;;;1.75;1.30;;;20.20;40.20;;;;;;5006965;28;20419;-74
2021/04/15 00:52:50;;;;;;;1.58;1.00;;;20.20;40.10;;;;;;4998651;28;20432;-73
2021/04/15 00:55:18;;;;;;;1.13;0.90;;;20.20;39.80;;;;;;5020791;28;20413;-73
2021/04/15 00:57:48;;;;;;;1.50;1.40;;;20.20;39.90;;;;;;5009007;28;20945;-74
2021/04/15 01:00:15;;;;;;;1.00;1.00;;;20.20;40.10;;;;;;5009154;28;20419;-73
2021/04/15 01:02:41;;;;;;;1.60;1.50;;;20.20;40.00;;;;;;4994399;28;20423;-73
2021/04/15 01:05:10;;;;;;;1.25;1.15;;;20.20;39.90;;;;;;4995928;28;20426;-73
2021/04/15 01:07:36;;;;;;;1.15;1.10;;;20.30;39.90;;;;;;4999504;28;21572;-73
2021/04/15 01:10:05;;;;;;;1.10;1.10;;;20.30;39.80;;;;;;4996771;28;20561;-73
2021/04/15 01:12:38;;;;;;;2.03;1.30;;;20.30;39.70;;;;;;5018332;28;20502;-73
2021/04/15 01:15:16;;;;;;;1.40;1.30;;;20.30;39.70;;;;;;4995173;28;20489;-74
2021/04/15 01:17:46;;;;;;;1.40;1.10;;;20.30;39.70;;;;;;4999405;28;20418;-75
2021/04/15 01:20:49;;;;;;;1.20;1.20;;;20.30;39.80;;;;;;5007191;28;20409;-73
2021/04/15 01:23:18;;;;;;;1.58;1.08;;;20.30;39.70;;;;;;5008027;28;20404;-74
2021/04/15 01:26:02;;;;;;;1.00;0.90;;;20.20;39.40;;;;;;5006337;28;20412;-74
2021/04/15 01:28:54;;;;;;;1.70;1.00;;;20.20;39.30;;;;;;5007821;28;20452;-73
2021/04/15 01:31:23;;;;;;;1.23;1.10;;;20.20;39.20;;;;;;5003906;28;21090;-73
2021/04/15 01:33:52;;;;;;;1.10;1.10;;;20.10;39.10;;;;;;5008123;28;21182;-74
2021/04/15 01:36:22;;;;;;;1.38;1.13;;;20.10;38.80;;;;;;4994407;28;20565;-73
2021/04/15 01:38:50;;;;;;;1.40;1.30;;;20.10;39.00;;;;;;4998801;28;20412;-73
2021/04/15 01:41:19;;;;;;;1.23;1.13;;;20.10;38.80;;;;;;5005201;28;20420;-74
2021/04/15 01:43:48;;;;;;;2.00;1.20;;;20.10;39.10;;;;;;4999300;28;20776;-73
2021/04/15 01:46:15;;;;;;;1.05;1.05;;;20.10;39.00;;;;;;5015479;28;20417;-75
2021/04/15 01:48:44;;;;;;;1.95;1.00;;;20.10;39.50;;;;;;5007350;28;20413;-73
2021/04/15 01:51:13;;;;;;;1.10;1.10;;;20.10;39.50;;;;;;5005500;28;20425;-73
2021/04/15 01:53:41;;;;;;;0.90;0.90;;;20.10;39.50;;;;;;5006503;28;20440;-74
2021/04/15 01:56:09;;;;;;;1.40;1.20;;;20.10;39.60;;;;;;5005518;28;20863;-72
2021/04/15 01:58:39;;;;;;;1.88;1.17;;;20.10;39.50;;;;;;4993254;28;20966;-74
2021/04/15 02:01:08;;;;;;;1.40;1.30;;;20.10;39.50;;;;;;5009838;28;20420;-72
2021/04/15 02:03:35;;;;;;;1.77;1.02;;;20.10;39.30;;;;;;5011975;28;20447;-73
2021/04/15 02:06:03;;;;;;;1.10;1.00;;;20.10;39.30;;;;;;5005567;28;20415;-73
2021/04/15 02:08:31;;;;;;;1.00;1.00;;;20.10;39.20;;;;;;5006197;28;20419;-73
2021/04/15 02:10:58;;;;;;;1.23;1.02;;;20.10;38.90;;;;;;5006509;28;20426;-73
2021/04/15 02:13:25;;;;;;;1.10;1.10;;;20.10;39.10;;;;;;5003325;28;20436;-74
2021/04/15 02:15:53;;;;;;;1.30;1.30;;;20.10;39.10;;;;;;5008768;28;20489;-73
2021/04/15 02:18:22;;;;;;;1.40;1.00;;;20.10;38.80;;;;;;5007313;28;20858;-74
2021/04/15 02:20:49;;;;;;;1.30;1.20;;;20.10;38.80;;;;;;5003257;28;20427;-74
2021/04/15 02:23:17;;;;;;;1.10;1.10;;;20.10;38.90;;;;;;5005440;28;20440;-74
2021/04/15 02:25:45;;;;;;;1.50;1.40;;;20.00;38.80;;;;;;5005232;28;20409;-75
2021/04/15 02:28:16;;;;;;;1.10;1.05;;;20.00;38.80;;;;;;5008750;28;20480;-74
2021/04/15 02:30:44;;;;;;;0.90;0.90;;;20.00;39.00;;;;;;4997597;28;20982;-75
2021/04/15 02:33:14;;;;;;;0.98;0.98;;;20.00;38.50;;;;;;5005879;28;20413;-73
2021/04/15 02:35:43;;;;;;;1.63;1.00;;;20.00;38.60;;;;;;4993750;28;20532;-74
2021/04/15 02:38:09;;;;;;;1.83;1.00;;;20.00;39.00;;;;;;5006026;28;20420;-74
2021/04/15 02:40:39;;;;;;;2.50;1.45;;;20.00;38.90;;;;;;5006061;28;20448;-73
2021/04/15 02:43:10;;;;;;;1.65;1.40;;;20.00;39.00;;;;;;5005625;28;20413;-72
2021/04/15 02:45:39;;;;;;;1.50;1.40;;;19.90;38.70;;;;;;5005836;28;20429;-74
2021/04/15 02:48:06;;;;;;;1.65;1.13;;;20.00;38.80;;;;;;5005895;28;20423;-73
2021/04/15 02:50:33;;;;;;;2.42;1.00;;;20.00;38.90;;;;;;5011214;28;20937;-72
2021/04/15 02:53:05;;;;;;;1.20;1.10;;;20.00;39.30;;;;;;5002152;28;20433;-74
2021/04/15 02:55:34;;;;;;;0.80;0.80;;;20.00;39.20;;;;;;5001886;28;20459;-73
2021/04/15 02:58:03;;;;;;;1.00;1.00;;;20.00;39.30;;;;;;4959346;28;20431;-73
2021/04/15 03:00:30;;;;;;;1.80;1.00;;;20.00;39.10;;;;;;4984964;28;20499;-74
2021/04/15 03:02:58;;;;;;;1.50;1.20;;;20.00;39.10;;;;;;4980965;28;20403;-73
2021/04/15 03:05:25;;;;;;;1.15;1.15;;;20.00;39.00;;;;;;4986973;28;20418;-74
2021/04/15 03:07:52;;;;;;;2.30;1.00;;;20.00;38.60;;;;;;5009060;28;20411;-73
2021/04/15 03:10:22;;;;;;;1.90;1.38;;;20.00;38.60;;;;;;5010759;28;21176;-74
2021/04/15 03:12:49;;;;;;;2.10;1.20;;;20.00;38.80;;;;;;5007656;28;20414;-75
2021/04/15 03:15:17;;;;;;;1.63;1.30;;;20.00;38.00;;;;;;5010516;28;20478;-73
2021/04/15 03:17:44;;;;;;;2.20;1.30;;;20.00;37.90;;;;;;5007895;28;20420;-73
2021/04/15 03:20:13;;;;;;;1.10;1.10;;;20.10;38.00;;;;;;4999675;28;20425;-74
2021/04/15 03:22:43;;;;;;;1.40;1.30;;;20.10;38.00;;;;;;5007955;28;20492;-73
2021/04/15 03:25:10;;;;;;;1.10;1.10;;;20.10;38.00;;;;;;5009727;28;21146;-74
2021/04/15 03:27:38;;;;;;;1.00;1.00;;;20.10;37.90;;;;;;5009412;28;20416;-73
2021/04/15 03:30:07;;;;;;;1.40;1.20;;;20.20;38.00;;;;;;5009297;28;20911;-72
2021/04/15 03:32:35;;;;;;;1.70;1.30;;;20.20;38.00;;;;;;5003370;28;20432;-74
2021/04/15 03:35:05;;;;;;;1.80;1.70;;;20.20;38.00;;;;;;5008649;28;20476;-74
2021/04/15 03:37:35;;;;;;;2.10;1.30;;;20.30;38.20;;;;;;5009286;28;20934;-73
2021/04/15 03:40:01;;;;;;;3.42;1.65;;;20.30;38.10;;;;;;5007894;28;20454;-74
2021/04/15 03:42:29;;;;;;;1.40;1.30;;;20.30;38.20;;;;;;5008320;28;20415;-72
2021/04/15 03:45:00;;;;;;;1.07;1.07;;;20.30;38.10;;;;;;5006896;28;20442;-73
2021/04/15 03:47:29;;;;;;;1.00;1.00;;;20.30;38.10;;;;;;5006193;28;20411;-73
2021/04/15 03:49:58;;;;;;;1.80;1.60;;;20.30;38.10;;;;;;5006502;28;20407;-74
2021/04/15 03:52:25;;;;;;;1.77;1.27;;;20.30;38.10;;;;;;5009314;28;20767;-73
2021/04/15 03:54:54;;;;;;;1.23;1.13;;;20.20;38.10;;;;;;4998826;28;20410;-75
2021/04/15 03:57:21;;;;;;;1.50;1.10;;;20.20;38.00;;;;;;4992116;28;20435;-74
2021/04/15 03:59:49;;;;;;;1.30;1.20;;;20.20;38.10;;;;;;4991740;28;20429;-73
2021/04/15 04:02:18;;;;;;;1.70;1.60;;;20.20;38.10;;;;;;4976094;28;20441;-75
2021/04/15 04:04:48;;;;;;;1.25;1.15;;;20.20;38.10;;;;;;4998885;28;20980;-74
2021/04/15 04:07:16;;;;;;;1.80;1.70;;;20.20;38.10;;;;;;4992246;28;20519;-74
2021/04/15 04:09:44;;;;;;;1.40;1.30;;;20.20;38.10;;;;;;5020604;28;20539;-75
2021/04/15 04:12:11;;;;;;;1.52;1.42;;;20.30;38.20;;;;;;5007736;28;20405;-74
2021/04/15 04:14:40;;;;;;;1.88;1.40;;;20.30;38.20;;;;;;5008059;28;20420;-74
2021/04/15 04:17:08;;;;;;;1.40;1.30;;;20.30;38.10;;;;;;5005939;28;20905;-73
2021/04/15 04:19:37;;;;;;;3.70;1.15;;;20.40;38.20;;;;;;5007188;28;20921;-74
2021/04/15 04:22:10;;;;;;;1.52;1.20;;;20.40;38.20;;;;;;5007520;28;20415;-74
2021/04/15 04:24:44;;;;;;;1.83;1.40;;;20.40;38.20;;;;;;5013016;28;20469;-74
2021/04/15 04:27:12;;;;;;;1.20;1.10;;;20.40;38.20;;;;;;4997562;28;21143;-74
2021/04/15 04:29:40;;;;;;;1.58;1.48;;;20.30;38.20;;;;;;4998011;28;20412;-73
2021/04/15 04:32:10;;;;;;;1.60;1.50;;;20.30;37.60;;;;;;5005848;28;20841;-69
2021/04/15 04:34:38;;;;;;;2.50;1.33;;;20.30;37.50;;;;;;5007801;28;20428;-74
2021/04/15 04:37:04;;;;;;;1.63;1.52;;;20.40;37.70;;;;;;5004971;28;20418;-72
2021/04/15 04:39:30;;;;;;;1.23;1.20;;;20.40;37.60;;;;;;4994700;28;21102;-74
2021/04/15 04:42:02;;;;;;;1.70;1.35;;;20.40;37.70;;;;;;5005272;28;20484;-73
2021/04/15 04:44:42;;;;;;;1.58;1.48;;;20.40;37.70;;;;;;5005156;28;20494;-74
2021/04/15 04:47:16;;;;;;;1.52;1.42;;;20.40;37.80;;;;;;5005784;28;20782;-75
2021/04/15 04:49:44;;;;;;;3.08;1.77;;;20.40;37.60;;;;;;4996722;28;20496;-73
2021/04/15 04:52:17;;;;;;;2.50;1.50;;;20.40;37.60;;;;;;5007575;28;20795;-73
2021/04/15 04:54:43;;;;;;;2.17;1.42;;;20.40;37.50;;;;;;4989993;28;20494;-73
2021/04/15 04:57:12;;;;;;;1.73;1.63;;;20.30;37.60;;;;;;4996177;28;20426;-74
2021/04/15 04:59:40;;;;;;;1.60;1.50;;;20.30;37.30;;;;;;4931677;28;1247362;-74
2021/04/15 05:02:06;;;;;;;2.70;1.42;;;20.30;38.10;;;;;;4997183;28;20563;-72
2021/04/15 05:04:34;;;;;;;2.35;1.52;;;20.30;37.80;;;;;;5008912;28;20475;-72
2021/04/15 05:07:04;;;;;;;1.50;1.20;;;20.30;37.10;;;;;;5007310;28;20473;-73
2021/04/15 05:09:32;;;;;;;1.70;1.60;;;20.30;37.40;;;;;;4994558;28;20411;-75
2021/04/15 05:11:58;;;;;;;2.10;1.60;;;20.30;36.80;;;;;;5009887;28;20422;-73
2021/04/15 05:14:25;;;;;;;1.70;1.60;;;20.30;36.60;;;;;;5005605;28;20434;-73
2021/04/15 05:16:55;;;;;;;3.72;1.85;;;20.30;36.80;;;;;;5006639;28;20415;-73
2021/04/15 05:19:21;;;;;;;3.20;2.42;;;20.30;36.80;;;;;;5007516;28;20407;-73
2021/04/15 05:21:47;;;;;;;1.60;1.50;;;20.20;36.70;;;;;;5008179;28;20413;-73
2021/04/15 05:24:17;;;;;;;1.80;1.70;;;20.20;36.70;;;;;;5006704;28;20951;-74
2021/04/15 05:26:43;;;;;;;1.85;1.60;;;20.20;36.60;;;;;;5002991;28;20430;-72
2021/04/15 05:29:12;;;;;;;2.10;1.63;;;20.20;36.50;;;;;;4997700;28;20437;-73
2021/04/15 05:31:40;;;;;;;2.28;2.10;;;20.30;37.20;;;;;;5011993;28;20423;-73
2021/04/15 05:34:13;;;;;;;2.70;2.20;;;20.20;37.30;;;;;;4997790;28;20428;-77
2021/04/15 05:36:39;;;;;;;3.20;2.00;;;20.20;38.10;;;;;;5001233;28;20785;-72
2021/04/15 05:39:08;;;;;;;4.28;1.85;;;20.20;37.90;;;;;;4996501;28;20413;-73
2021/04/15 05:41:40;;;;;;;2.03;1.90;;;20.30;38.10;;;;;;4994741;28;20493;-74
2021/04/15 05:44:10;;;;;;;3.70;1.77;;;20.20;37.60;;;;;;5001720;28;20441;-73
2021/04/15 05:46:38;;;;;;;4.60;2.00;;;20.20;38.00;;;;;;5004822;28;20424;-74
2021/04/15 05:49:04;;;;;;;2.70;1.85;;;20.20;37.30;;;;;;5000519;28;20419;-74
2021/04/15 05:51:34;;;;;;;6.55;3.15;;;20.20;39.00;;;;;;4997761;28;20912;-74
2021/04/15 05:54:04;;;;;;;5.65;2.40;;;20.10;37.90;;;;;;4999459;28;20456;-74
2021/04/15 05:56:33;;;;;;;3.58;2.70;;;20.10;38.00;;;;;;5013249;28;20469;-73
2021/04/15 05:59:02;;;;;;;2.53;2.22;;;20.10;38.00;;;;;;4967999;28;20872;-73
2021/04/15 06:01:33;;;;;;;4.53;2.47;;;20.10;37.20;;;;;;4997451;28;20769;-74
2021/04/15 06:04:04;;;;;;;4.07;2.40;;;20.10;36.10;;;;;;5004440;28;20453;-73
2021/04/15 06:06:31;;;;;;;2.75;2.20;;;20.10;36.10;;;;;;5008813;28;20423;-73
2021/04/15 06:08:58;;;;;;;2.90;2.10;;;20.10;36.10;;;;;;5006407;28;20407;-73
2021/04/15 06:11:56;;;;;;;4.50;1.97;;;20.10;36.30;;;;;;5005191;28;20424;-73
2021/04/15 06:14:26;;;;;;;2.10;2.00;;;20.10;36.60;;;;;;5004477;28;20407;-73
2021/04/15 06:17:14;;;;;;;4.13;1.80;;;20.10;36.70;;;;;;5004817;28;20890;-73
2021/04/15 06:19:40;;;;;;;4.90;1.80;;;20.10;37.00;;;;;;5004141;28;20409;-73
2021/04/15 06:22:10;;;;;;;2.17;1.60;;;20.10;36.90;;;;;;5002910;28;20429;-72
2021/04/15 06:24:36;;;;;;;1.80;1.70;;;20.10;37.60;;;;;;5006492;28;20412;-73
2021/04/15 06:27:04;;;;;;;1.90;1.80;;;20.10;36.80;;;;;;4998294;28;20425;-73
2021/04/15 06:29:33;;;;;;;2.33;1.50;;;20.10;37.60;;;;;;5000296;28;20412;-72
2021/04/15 06:32:01;;;;;;;2.15;1.60;;;20.20;37.80;;;;;;5002229;28;20449;-74
2021/04/15 06:34:27;;;;;;;1.73;1.60;;;20.30;38.10;;;;;;5001579;28;20415;-73
2021/04/15 06:36:58;;;;;;;2.45;1.42;;;20.30;38.20;;;;;;5006495;28;21072;-74
2021/04/15 06:39:27;;;;;;;2.42;1.70;;;20.40;38.20;;;;;;5004480;28;20415;-73
2021/04/15 06:42:16;;;;;;;2.30;1.50;;;20.40;38.20;;;;;;5002417;28;20848;-73
2021/04/15 06:45:06;;;;;;;1.75;1.50;;;20.50;38.30;;;;;;4998483;28;20405;-74
2021/04/15 06:47:54;;;;;;;1.58;1.48;;;20.50;38.30;;;;;;5000138;28;20523;-73
2021/04/15 06:50:24;;;;;;;2.30;1.90;;;20.50;38.30;;;;;;4991250;28;20408;-73
2021/04/15 06:52:58;;;;;;;1.88;1.50;;;20.60;38.40;;;;;;5006570;28;20420;-73
2021/04/15 06:55:38;;;;;;;1.70;1.50;;;20.50;38.30;;;;;;5005618;28;20761;-74
2021/04/15 06:58:13;;;;;;;3.25;1.20;;;20.60;38.40;;;;;;4989423;28;20912;-73
2021/04/15 07:00:52;;;;;;;1.55;1.40;;;20.60;38.40;;;;;;5001618;28;20490;-72
2021/04/15 07:03:41;;;;;;;1.60;1.50;;;20.60;38.40;;;;;;4979345;28;20425;-75
2021/04/15 07:06:11;;;;;;;1.60;1.40;;;20.70;38.50;;;;;;5007193;28;20825;-72
2021/04/15 07:08:44;;;;;;;1.60;1.40;;;20.70;38.50;;;;;;4990082;28;20469;-73
2021/04/15 07:11:15;;;;;;;3.30;2.50;;;20.80;38.50;;;;;;4954957;28;22065;-73
2021/04/15 07:13:53;;;;;;;2.63;2.28;;;20.80;38.50;;;;;;4970429;28;20456;-73
2021/04/15 07:17:04;;;;;;;3.53;1.90;;;20.80;38.60;;;;;;4996583;28;20413;-73
2021/04/15 07:20:23;;;;;;;3.60;1.95;;;20.70;39.30;;;;;;4974183;28;20422;-74
2021/04/15 07:23:02;;;;;;;3.63;2.00;;;20.70;38.50;;;;;;5005886;28;20413;-74
2021/04/15 07:25:42;;;;;;;2.90;2.43;;;20.70;38.50;;;;;;5003390;28;20415;-73
2021/04/15 07:28:31;;;;;;;2.55;2.33;;;20.60;38.40;;;;;;5002149;28;20437;-74
2021/04/15 07:31:22;;;;;;;2.63;2.30;;;20.60;38.40;;;;;;4940776;28;20413;-72
2021/04/15 07:34:03;;;;;;;2.92;2.40;;;20.50;38.30;;;;;;5001720;28;20490;-73
2021/04/15 07:36:45;;;;;;;2.90;2.40;;;20.50;38.30;;;;;;4993645;28;20407;-74
2021/04/15 07:39:56;;;;;;;2.00;1.77;;;20.40;38.20;;;;;;5000281;28;20809;-74
2021/04/15 07:42:33;;;;;;;2.42;1.92;;;20.40;38.20;;;;;;4933487;28;20418;-75
2021/04/15 07:45:00;;;;;;;2.50;2.15;;;20.40;38.20;;;;;;4984570;28;20418;-74
2021/04/15 07:47:55;;;;;;;4.40;3.85;;;20.30;38.10;;;;;;5000245;28;20468;-72
2021/04/15 07:50:46;;;;;;;5.47;3.63;;;20.30;38.20;;;;;;4954465;28;20405;-74
2021/04/15 07:53:33;;;;;;;4.40;2.90;;;20.30;38.30;;;;;;5004046;28;20417;-75
2021/04/15 07:56:27;;;;;;;3.90;2.40;;;20.30;38.10;;;;;;4996426;28;20405;-74
2021/04/15 07:59:07;;;;;;;3.00;2.45;;;20.30;38.20;;;;;;5016181;28;20429;-75
2021/04/15 08:01:52;;;;;;;2.63;2.50;;;20.30;38.10;;;;;;5021053;28;20412;-73
2021/04/15 08:04:48;;;;;;;2.78;2.38;;;20.40;38.20;;;;;;5016158;28;20418;-73
2021/04/15 08:07:45;;;;;;;2.17;1.95;;;20.40;38.20;;;;;;4984845;28;20425;-74
2021/04/15 08:10:37;;;;;;;3.10;1.90;;;20.40;38.20;;;;;;4949798;28;20413;-72
2021/04/15 08:13:22;;;;;;;2.40;1.90;;;20.40;38.20;;;;;;4999753;28;20456;-73
2021/04/15 08:16:03;;;;;;;2.63;1.73;;;20.40;38.20;;;;;;5002447;28;20446;-73
2021/04/15 08:18:38;;;;;;;2.95;1.50;;;20.40;38.20;;;;;;4984802;28;20412;-73
2021/04/15 08:21:10;;;;;;;2.22;1.83;;;20.40;38.20;;;;;;5005608;28;20923;-74
2021/04/15 08:23:58;;;;;;;2.00;1.80;;;20.40;38.20;;;;;;5005706;28;20452;-74
2021/04/15 08:26:35;;;;;;;2.20;2.00;;;20.40;38.20;;;;;;4997493;28;20432;-73
2021/04/15 08:29:20;;;;;;;3.60;1.98;;;20.40;38.30;;;;;;4990365;28;20417;-74
2021/04/15 08:31:52;;;;;;;2.35;1.70;;;20.50;38.30;;;;;;5009630;28;20987;-76
2021/04/15 08:34:24;;;;;;;1.40;1.30;;;20.50;38.30;;;;;;5000826;28;20427;-75
2021/04/15 08:37:27;;;;;;;2.50;1.80;;;20.50;38.30;;;;;;5006626;28;20549;-74
2021/04/15 08:40:03;;;;;;;1.70;1.60;;;20.50;38.30;;;;;;5003820;28;20445;-74
2021/04/15 08:42:49;;;;;;;1.80;1.70;;;20.50;38.30;;;;;;5005944;28;21016;-75
2021/04/15 08:45:28;;;;;;;1.80;1.70;;;20.50;38.30;;;;;;4996404;28;20419;-74
2021/04/15 08:48:01;;;;;;;5.38;2.42;;;20.50;38.30;;;;;;5005025;28;20423;-74
2021/04/15 08:50:36;;;;;;;5.22;2.55;;;20.40;42.50;;;;;;4987688;28;20412;-74
2021/04/15 08:53:08;;;;;;;2.87;1.90;;;20.40;43.10;;;;;;5003876;28;20456;-71
2021/04/15 08:55:36;;;;;;;10.63;3.03;;;20.50;41.20;;;;;;5002666;28;21177;-71
2021/04/15 08:58:30;;;;;;;12.40;3.70;;;20.50;55.70;;;;;;5003623;28;20485;-71
2021/04/15 09:00:58;;;;;;;19.60;4.30;;;20.70;75.50;;;;;;4991678;28;20427;-73
2021/04/15 09:03:29;;;;;;;18.07;4.33;;;20.90;84.20;;;;;;4999577;28;20415;-71
2021/04/15 09:06:24;;;;;;;27.42;4.90;;;21.10;90.80;;;;;;5001777;28;20851;-72
2021/04/15 09:08:58;;;;;;;37.33;7.53;;;21.30;91.90;;;;;;4997890;28;20413;-70
2021/04/15 09:11:30;;;;;;;65.97;10.95;;;21.50;91.80;;;;;;5002730;28;20830;-72
2021/04/15 09:14:00;;;;;;;122.53;15.20;;;21.60;92.20;;;;;;5007259;28;20418;-72
2021/04/15 09:16:37;;;;;;;162.40;23.10;;;21.70;91.60;;;;;;5002628;28;20424;-71
2021/04/15 09:19:10;;;;;;;170.93;24.45;;;21.80;91.60;;;;;;5003285;28;20427;-71
2021/04/15 09:21:50;;;;;;;151.18;24.75;;;21.90;85.20;;;;;;5003378;28;20412;-71
2021/04/15 09:24:22;;;;;;;183.80;31.10;;;21.70;75.20;;;;;;5004835;28;21407;-72
2021/04/15 09:27:23;;;;;;;210.57;36.17;;;21.60;84.30;;;;;;4995902;28;20410;-72
2021/04/15 09:30:00;;;;;;;132.85;27.17;;;21.70;86.50;;;;;;4899119;29;20419;-72
2021/04/15 09:32:32;;;;;;;138.77;26.55;;;21.80;70.60;;;;;;4907470;29;20419;-72
2021/04/15 09:35:16;;;;;;;124.80;26.63;;;21.60;67.50;;;;;;4961409;28;20417;-73
2021/04/15 09:38:03;;;;;;;126.82;24.52;;;21.40;64.70;;;;;;5002636;28;20438;-72
2021/04/15 09:40:36;;;;;;;95.80;21.20;;;21.30;61.80;;;;;;5000991;28;20420;-71
2021/04/15 09:43:09;;;;;;;59.92;12.77;;;21.20;57.90;;;;;;5010909;28;20424;-71
2021/04/15 09:45:55;;;;;;;61.97;12.27;;;21.00;54.60;;;;;;5005039;28;20437;-71
2021/04/15 09:48:41;;;;;;;59.30;11.93;;;20.90;52.90;;;;;;4998256;28;20410;-71
2021/04/15 09:51:12;;;;;;;50.33;11.07;;;20.80;52.10;;;;;;5007051;28;20419;-72
2021/04/15 09:53:43;;;;;;;39.42;9.98;;;20.80;51.30;;;;;;5007841;28;20430;-72
2021/04/15 09:56:14;;;;;;;46.03;9.88;;;20.80;50.50;;;;;;5009313;28;20423;-72
2021/04/15 09:58:43;;;;;;;42.42;9.98;;;20.80;50.10;;;;;;4994256;28;20415;-73
2021/04/15 10:01:14;;;;;;;37.22;8.98;;;20.80;49.90;;;;;;5009609;28;20840;-71
2021/04/15 10:03:46;;;;;;;30.83;9.07;;;20.80;49.00;;;;;;5005351;28;21426;-74
2021/04/15 10:06:19;;;;;;;25.10;7.72;;;20.80;48.60;;;;;;5007743;28;20617;-72
2021/04/15 10:09:17;;;;;;;34.92;7.20;;;20.80;48.30;;;;;;5007516;28;20554;-72
2021/04/15 10:11:51;;;;;;;26.98;6.40;;;20.80;47.90;;;;;;5003756;28;20634;-72
2021/04/15 10:14:49;;;;;;;24.35;6.30;;;20.80;47.30;;;;;;5004017;28;20423;-71
2021/04/15 10:17:39;;;;;;;21.30;5.55;;;20.80;46.20;;;;;;5007392;28;20446;-73
2021/04/15 10:20:19;;;;;;;20.57;5.80;;;20.80;47.00;;;;;;4995987;28;20411;-72
2021/04/15 10:22:53;;;;;;;19.63;5.07;;;20.70;46.30;;;;;;4997776;28;21395;-72
2021/04/15 10:25:21;;;;;;;16.63;5.00;;;20.70;46.30;;;;;;5005412;28;20458;-71
2021/04/15 10:28:08;;;;;;;25.45;5.70;;;20.60;47.10;;;;;;5006912;28;20423;-70
2021/04/15 10:31:17;;;;;;;19.13;5.00;;;20.60;46.70;;;;;;4978059;28;20596;-72
2021/04/15 10:34:03;;;;;;;22.52;4.88;;;20.60;46.60;;;;;;4989000;28;20416;-71
2021/04/15 10:36:54;;;;;;;18.70;5.70;;;20.50;46.50;;;;;;4980334;28;20415;-73
2021/04/15 10:39:48;;;;;;;13.43;4.45;;;20.50;46.40;;;;;;4978863;28;20422;-72
2021/04/15 10:42:29;;;;;;;9.68;3.85;;;20.50;45.10;;;;;;4991438;28;20442;-71
2021/04/15 10:45:17;;;;;;;15.52;3.63;;;20.50;45.60;;;;;;4999387;28;20418;-72
2021/04/15 10:47:53;;;;;;;12.70;3.45;;;20.50;45.20;;;;;;4988983;28;20423;-73
2021/04/15 10:50:26;;;;;;;13.73;3.60;;;20.50;45.00;;;;;;5000640;28;20510;-70
2021/04/15 10:53:01;;;;;;;12.57;3.70;;;20.60;45.00;;;;;;5004648;28;20427;-73
2021/04/15 10:55:39;;;;;;;10.02;3.55;;;20.60;44.60;;;;;;4989380;28;20861;-71
2021/04/15 10:58:22;;;;;;;11.40;3.70;;;20.60;44.70;;;;;;4993561;28;20417;-72
2021/04/15 11:00:48;;;;;;;7.50;3.05;;;20.60;44.70;;;;;;4983618;28;20439;-71
2021/04/15 11:03:16;;;;;;;9.98;2.60;;;20.50;44.90;;;;;;5001305;28;20420;-72
2021/04/15 11:05:43;;;;;;;8.55;2.40;;;20.50;44.50;;;;;;4980436;28;20419;-73
2021/04/15 11:08:11;;;;;;;5.30;2.15;;;20.50;44.60;;;;;;5008301;28;20431;-71
2021/04/15 11:10:38;;;;;;;8.75;2.70;;;20.50;44.90;;;;;;5012755;28;20428;-72
2021/04/15 11:13:12;;;;;;;11.05;2.80;;;20.40;44.90;;;;;;5004218;28;20416;-73
2021/04/15 11:15:44;;;;;;;6.70;2.60;;;20.40;44.80;;;;;;5004702;28;20445;-72
2021/04/15 11:18:11;;;;;;;10.90;3.63;;;20.40;44.10;;;;;;5004297;28;20482;-71
2021/04/15 11:20:41;;;;;;;103.72;18.60;;;20.40;44.30;;;;;;4998719;28;20496;-73
2021/04/15 11:23:09;;;;;;;70.35;14.60;;;20.50;52.80;;;;;;5001804;28;20433;-73
2021/04/15 11:25:40;;;;;;;45.47;9.52;;;20.80;53.90;;;;;;5000394;28;20468;-71
2021/04/15 11:28:12;;;;;;;27.25;6.55;;;21.10;49.40;;;;;;5002260;28;20412;-71
2021/04/15 11:30:41;;;;;;;34.65;5.53;;;21.30;40.00;;;;;;4991221;28;20447;-71
2021/04/15 11:33:09;;;;;;;19.88;5.70;;;21.50;39.10;;;;;;4994793;28;20480;-72
2021/04/15 11:35:35;;;;;;;27.85;6.43;;;21.50;37.30;;;;;;4987068;28;20429;-72
2021/04/15 11:38:15;;;;;;;35.10;7.20;;;21.40;37.40;;;;;;5002123;28;20412;-71
2021/04/15 11:40:43;;;;;;;30.00;4.93;;;21.50;42.10;;;;;;5013143;28;21001;-72
2021/04/15 11:43:24;;;;;;;20.70;5.70;;;21.60;39.30;;;;;;5009992;28;21399;-72
2021/04/15 11:45:51;;;;;;;19.52;4.90;;;21.60;38.10;;;;;;4980088;28;20439;-74
2021/04/15 11:48:19;;;;;;;23.88;5.07;;;21.60;36.90;;;;;;5008326;28;20415;-71
2021/04/15 11:50:46;;;;;;;16.20;3.80;;;21.40;37.00;;;;;;5005774;28;20413;-71
2021/04/15 11:53:38;;;;;;;9.23;2.40;;;20.80;42.60;;;;;;5009298;28;21513;-72
2021/04/15 11:56:14;;;;;;;5.97;1.98;;;20.10;37.90;;;;;;5004705;28;20449;-71
2021/04/15 11:58:41;;;;;;;8.38;2.28;;;19.50;37.40;;;;;;5002345;28;21836;-73
2021/04/15 12:01:07;;;;;;;5.93;1.90;;;19.50;41.60;;;;;;5009528;28;20820;-71
2021/04/15 12:03:34;;;;;;;6.10;2.63;;;19.30;41.00;;;;;;5010527;28;20424;-72
2021/04/15 12:06:04;;;;;;;3.13;1.50;;;19.20;39.80;;;;;;5008895;28;20414;-71
2021/04/15 12:08:33;;;;;;;2.80;1.60;;;19.10;38.10;;;;;;5009829;28;20408;-71
2021/04/15 12:11:01;;;;;;;4.10;1.30;;;19.00;41.70;;;;;;5004250;28;20451;-72
2021/04/15 12:13:30;;;;;;;3.80;1.23;;;18.90;41.70;;;;;;5008640;28;20777;-71
2021/04/15 12:15:57;;;;;;;2.45;1.20;;;18.90;40.10;;;;;;5000204;28;20426;-72
2021/04/15 12:18:28;;;;;;;2.90;1.10;;;19.10;40.70;;;;;;5001414;28;21042;-71
2021/04/15 12:20:58;;;;;;;4.60;1.30;;;19.40;40.70;;;;;;5007829;28;20977;-72
2021/04/15 12:23:27;;;;;;;7.63;1.00;;;19.60;40.00;;;;;;4985166;28;20424;-71
2021/04/15 12:25:55;;;;;;;1.75;1.20;;;19.80;40.10;;;;;;5004161;28;20437;-73
2021/04/15 12:28:35;;;;;;;2.30;0.80;;;19.90;39.40;;;;;;4997244;28;21557;-72
2021/04/15 12:31:03;;;;;;;1.85;0.90;;;20.10;39.80;;;;;;5005896;28;20405;-72
2021/04/15 12:33:34;;;;;;;5.07;1.20;;;20.20;39.30;;;;;;4995670;28;20910;-72
2021/04/15 12:36:02;;;;;;;1.30;0.70;;;20.30;39.80;;;;;;5004105;28;20417;-72
2021/04/15 12:38:32;;;;;;;4.07;1.35;;;20.30;39.30;;;;;;5007078;28;20419;-72
2021/04/15 12:40:59;;;;;;;3.10;1.00;;;20.30;40.20;;;;;;5003715;28;20785;-73
2021/04/15 12:43:27;;;;;;;2.20;0.77;;;20.30;40.20;;;;;;5005263;28;20489;-72
2021/04/15 12:45:56;;;;;;;2.08;0.90;;;20.30;40.30;;;;;;5003491;28;20897;-71
2021/04/15 12:48:29;;;;;;;2.77;0.90;;;20.30;40.20;;;;;;5009701;28;20790;-72
2021/04/15 12:50:55;;;;;;;2.50;1.00;;;20.30;40.50;;;;;;5000874;28;20427;-70
2021/04/15 12:53:22;;;;;;;1.20;0.83;;;20.30;41.00;;;;;;5005663;28;20449;-73
2021/04/15 12:55:49;;;;;;;0.90;0.90;;;20.30;39.80;;;;;;5005233;28;20446;-72
2021/04/15 12:58:15;;;;;;;1.50;0.70;;;20.30;39.90;;;;;;5003129;28;20459;-73
2021/04/15 13:00:43;;;;;;;1.20;0.70;;;20.30;39.30;;;;;;4995048;28;20453;-72
2021/04/15 13:03:22;;;;;;;2.60;0.70;;;20.40;39.60;;;;;;5012179;28;20436;-71
2021/04/15 13:05:54;;;;;;;1.58;0.70;;;20.40;39.40;;;;;;5009999;28;20912;-70
2021/04/15 13:08:22;;;;;;;1.30;0.80;;;20.40;39.10;;;;;;5000099;28;20415;-73
2021/04/15 13:10:48;;;;;;;0.90;0.80;;;20.40;39.30;;;;;;5005040;28;20418;-71
2021/04/15 13:13:34;;;;;;;0.90;0.70;;;20.50;38.40;;;;;;5008305;28;20415;-71